sensor_id;sensor_type;location;lat;lon;timestamp;P1;durP1;ratioP1;P2;durP2;ratioP2
60714;SDS011;46564;53.096;8.246;2022-09-21T00:02:57;9.45;;;4.00;;
60714;SDS011;46564;53.096;8.246;2022-09-21T00:08:03;10.30;;;4.10;;
60714;SDS011;46564;53.096;8.246;2022-09-21T00:13:06;9.05;;;3.65;;
60714;SDS011;46564;53.096;8.246;2022-09-21T00:18:09;7.18;;;3.50;;
60714;SDS011;46564;53.096;8.246;2022-09-21T00:23:11;7.07;;;3.03;;
60714;SDS011;46564;53.096;8.246;2022-09-21T00:28:14;12.13;;;3.15;;
60714;SDS011;46564;53.096;8.246;2022-09-21T00:33:15;7.50;;;2.90;;
60714;SDS011;46564;53.096;8.246;2022-09-21T00:38:17;8.80;;;3.00;;
60714;SDS011;46564;53.096;8.246;2022-09-21T00:43:18;6.28;;;2.67;;
60714;SDS011;46564;53.096;8.246;2022-09-21T00:48:27;9.93;;;2.90;;
60714;SDS011;46564;53.096;8.246;2022-09-21T00:53:30;8.95;;;3.88;;
60714;SDS011;46564;53.096;8.246;2022-09-21T00:58:34;9.80;;;4.55;;
60714;SDS011;46564;53.096;8.246;2022-09-21T01:03:40;14.70;;;5.10;;
60714;SDS011;46564;53.096;8.246;2022-09-21T01:08:46;9.50;;;4.90;;
60714;SDS011;46564;53.096;8.246;2022-09-21T01:30:10;11.95;;;4.45;;
60714;SDS011;46564;53.096;8.246;2022-09-21T01:35:21;8.98;;;3.78;;
60714;SDS011;46564;53.096;8.246;2022-09-21T01:40:32;6.50;;;3.20;;
60714;SDS011;46564;53.096;8.246;2022-09-21T01:45:37;7.05;;;3.55;;
60714;SDS011;46564;53.096;8.246;2022-09-21T01:50:45;11.85;;;3.47;;
60714;SDS011;46564;53.096;8.246;2022-09-21T01:55:53;6.00;;;2.53;;
60714;SDS011;46564;53.096;8.246;2022-09-21T02:00:58;7.55;;;2.58;;
60714;SDS011;46564;53.096;8.246;2022-09-21T02:06:00;6.20;;;2.70;;
60714;SDS011;46564;53.096;8.246;2022-09-21T02:11:03;9.65;;;2.75;;
60714;SDS011;46564;53.096;8.246;2022-09-21T02:21:14;7.97;;;2.60;;
60714;SDS011;46564;53.096;8.246;2022-09-21T02:26:24;7.63;;;2.58;;
60714;SDS011;46564;53.096;8.246;2022-09-21T02:31:49;9.25;;;3.08;;
60714;SDS011;46564;53.096;8.246;2022-09-21T02:36:57;7.57;;;2.42;;
60714;SDS011;46564;53.096;8.246;2022-09-21T02:42:08;5.53;;;2.60;;
60714;SDS011;46564;53.096;8.246;2022-09-21T02:47:16;6.50;;;2.47;;
60714;SDS011;46564;53.096;8.246;2022-09-21T02:52:22;13.65;;;3.80;;
60714;SDS011;46564;53.096;8.246;2022-09-21T02:57:27;8.43;;;3.00;;
60714;SDS011;46564;53.096;8.246;2022-09-21T03:02:39;13.48;;;3.58;;
60714;SDS011;46564;53.096;8.246;2022-09-21T03:07:42;10.02;;;3.25;;
60714;SDS011;46564;53.096;8.246;2022-09-21T03:12:44;16.58;;;4.78;;
60714;SDS011;46564;53.096;8.246;2022-09-21T03:17:46;10.57;;;3.67;;
60714;SDS011;46564;53.096;8.246;2022-09-21T03:22:47;13.95;;;4.75;;
60714;SDS011;46564;53.096;8.246;2022-09-21T03:27:49;11.55;;;4.18;;
60714;SDS011;46564;53.096;8.246;2022-09-21T03:32:54;11.75;;;3.90;;
60714;SDS011;46564;53.096;8.246;2022-09-21T03:37:56;10.07;;;3.83;;
60714;SDS011;46564;53.096;8.246;2022-09-21T03:42:58;10.20;;;4.78;;
60714;SDS011;46564;53.096;8.246;2022-09-21T03:48:00;12.18;;;4.15;;
60714;SDS011;46564;53.096;8.246;2022-09-21T03:53:02;12.27;;;4.20;;
60714;SDS011;46564;53.096;8.246;2022-09-21T03:58:04;14.32;;;4.68;;
60714;SDS011;46564;53.096;8.246;2022-09-21T04:03:06;15.18;;;5.00;;
60714;SDS011;46564;53.096;8.246;2022-09-21T04:08:13;11.35;;;4.90;;
60714;SDS011;46564;53.096;8.246;2022-09-21T04:13:14;12.93;;;4.22;;
60714;SDS011;46564;53.096;8.246;2022-09-21T04:18:16;13.60;;;4.82;;
60714;SDS011;46564;53.096;8.246;2022-09-21T04:23:18;9.45;;;4.47;;
60714;SDS011;46564;53.096;8.246;2022-09-21T04:28:20;14.00;;;4.80;;
60714;SDS011;46564;53.096;8.246;2022-09-21T04:33:23;17.98;;;4.65;;
60714;SDS011;46564;53.096;8.246;2022-09-21T04:38:24;14.73;;;4.65;;
60714;SDS011;46564;53.096;8.246;2022-09-21T04:43:26;13.80;;;5.07;;
60714;SDS011;46564;53.096;8.246;2022-09-21T04:48:27;10.27;;;4.75;;
60714;SDS011;46564;53.096;8.246;2022-09-21T04:53:29;14.88;;;4.90;;
60714;SDS011;46564;53.096;8.246;2022-09-21T04:58:33;15.88;;;4.90;;
60714;SDS011;46564;53.096;8.246;2022-09-21T05:03:37;9.85;;;4.63;;
60714;SDS011;46564;53.096;8.246;2022-09-21T05:08:39;14.23;;;4.78;;
60714;SDS011;46564;53.096;8.246;2022-09-21T05:19:01;21.92;;;4.40;;
60714;SDS011;46564;53.096;8.246;2022-09-21T05:24:03;14.80;;;4.32;;
60714;SDS011;46564;53.096;8.246;2022-09-21T05:29:05;9.02;;;4.20;;
60714;SDS011;46564;53.096;8.246;2022-09-21T05:34:24;10.15;;;4.60;;
60714;SDS011;46564;53.096;8.246;2022-09-21T05:39:28;9.07;;;4.00;;
60714;SDS011;46564;53.096;8.246;2022-09-21T05:44:30;10.90;;;4.80;;
60714;SDS011;46564;53.096;8.246;2022-09-21T05:55:05;9.85;;;4.18;;
60714;SDS011;46564;53.096;8.246;2022-09-21T06:00:21;10.95;;;4.43;;
60714;SDS011;46564;53.096;8.246;2022-09-21T06:05:23;11.95;;;4.68;;
60714;SDS011;46564;53.096;8.246;2022-09-21T06:10:35;9.80;;;4.88;;
60714;SDS011;46564;53.096;8.246;2022-09-21T06:15:41;10.05;;;4.95;;
60714;SDS011;46564;53.096;8.246;2022-09-21T06:20:43;12.25;;;5.30;;
60714;SDS011;46564;53.096;8.246;2022-09-21T06:25:49;13.82;;;5.47;;
60714;SDS011;46564;53.096;8.246;2022-09-21T06:30:59;13.98;;;5.15;;
60714;SDS011;46564;53.096;8.246;2022-09-21T06:36:00;10.02;;;4.82;;
60714;SDS011;46564;53.096;8.246;2022-09-21T06:41:06;9.40;;;3.78;;
60714;SDS011;46564;53.096;8.246;2022-09-21T06:46:09;21.20;;;4.38;;
60714;SDS011;46564;53.096;8.246;2022-09-21T06:51:11;39.70;;;5.35;;
60714;SDS011;46564;53.096;8.246;2022-09-21T06:56:13;14.15;;;5.13;;
60714;SDS011;46564;53.096;8.246;2022-09-21T07:01:15;33.42;;;5.10;;
60714;SDS011;46564;53.096;8.246;2022-09-21T07:06:26;18.10;;;5.13;;
60714;SDS011;46564;53.096;8.246;2022-09-21T07:11:33;11.35;;;5.60;;
60714;SDS011;46564;53.096;8.246;2022-09-21T07:16:35;9.57;;;5.43;;
60714;SDS011;46564;53.096;8.246;2022-09-21T07:21:40;10.80;;;5.80;;
60714;SDS011;46564;53.096;8.246;2022-09-21T07:26:42;13.20;;;7.32;;
60714;SDS011;46564;53.096;8.246;2022-09-21T07:31:52;14.98;;;8.23;;
60714;SDS011;46564;53.096;8.246;2022-09-21T07:36:54;15.65;;;8.93;;
60714;SDS011;46564;53.096;8.246;2022-09-21T07:41:56;15.48;;;8.85;;
60714;SDS011;46564;53.096;8.246;2022-09-21T07:47:01;14.40;;;7.85;;
60714;SDS011;46564;53.096;8.246;2022-09-21T07:52:10;19.73;;;8.02;;
60714;SDS011;46564;53.096;8.246;2022-09-21T07:57:12;10.13;;;5.50;;
60714;SDS011;46564;53.096;8.246;2022-09-21T08:02:33;8.45;;;4.60;;
60714;SDS011;46564;53.096;8.246;2022-09-21T08:07:35;9.02;;;4.20;;
60714;SDS011;46564;53.096;8.246;2022-09-21T08:12:36;10.50;;;4.30;;
60714;SDS011;46564;53.096;8.246;2022-09-21T08:17:38;8.02;;;3.97;;
60714;SDS011;46564;53.096;8.246;2022-09-21T08:22:39;12.05;;;4.57;;
60714;SDS011;46564;53.096;8.246;2022-09-21T08:27:41;11.07;;;4.90;;
60714;SDS011;46564;53.096;8.246;2022-09-21T08:32:43;8.63;;;2.92;;
60714;SDS011;46564;53.096;8.246;2022-09-21T08:37:52;10.40;;;3.43;;
60714;SDS011;46564;53.096;8.246;2022-09-21T08:43:07;9.15;;;3.13;;
60714;SDS011;46564;53.096;8.246;2022-09-21T08:48:22;12.18;;;3.10;;
60714;SDS011;46564;53.096;8.246;2022-09-21T08:53:34;7.38;;;2.70;;
60714;SDS011;46564;53.096;8.246;2022-09-21T08:58:39;8.73;;;3.00;;
60714;SDS011;46564;53.096;8.246;2022-09-21T09:19:32;7.25;;;1.65;;
60714;SDS011;46564;53.096;8.246;2022-09-21T09:24:52;10.18;;;2.38;;
60714;SDS011;46564;53.096;8.246;2022-09-21T09:30:04;8.32;;;1.63;;
60714;SDS011;46564;53.096;8.246;2022-09-21T09:36:05;7.38;;;1.70;;
60714;SDS011;46564;53.096;8.246;2022-09-21T09:40:53;8.95;;;1.70;;
60714;SDS011;46564;53.096;8.246;2022-09-21T09:46:01;7.17;;;1.40;;
60714;SDS011;46564;53.096;8.246;2022-09-21T09:51:13;4.20;;;1.02;;
60714;SDS011;46564;53.096;8.246;2022-09-21T09:56:15;5.90;;;0.77;;
60714;SDS011;46564;53.096;8.246;2022-09-21T10:06:43;10.02;;;1.10;;
60714;SDS011;46564;53.096;8.246;2022-09-21T10:11:47;6.53;;;1.17;;
60714;SDS011;46564;53.096;8.246;2022-09-21T10:16:50;7.18;;;0.75;;
60714;SDS011;46564;53.096;8.246;2022-09-21T10:21:55;5.00;;;1.45;;
60714;SDS011;46564;53.096;8.246;2022-09-21T10:37:28;10.07;;;1.83;;
60714;SDS011;46564;53.096;8.246;2022-09-21T10:42:35;3.70;;;1.00;;
60714;SDS011;46564;53.096;8.246;2022-09-21T10:47:46;6.95;;;0.95;;
60714;SDS011;46564;53.096;8.246;2022-09-21T10:52:53;8.18;;;1.20;;
60714;SDS011;46564;53.096;8.246;2022-09-21T10:57:59;4.77;;;1.40;;
60714;SDS011;46564;53.096;8.246;2022-09-21T11:03:45;6.05;;;1.33;;
60714;SDS011;46564;53.096;8.246;2022-09-21T11:08:33;9.07;;;1.13;;
60714;SDS011;46564;53.096;8.246;2022-09-21T11:14:00;4.88;;;0.90;;
60714;SDS011;46564;53.096;8.246;2022-09-21T11:29:54;7.45;;;0.82;;
60714;SDS011;46564;53.096;8.246;2022-09-21T12:11:42;16.17;;;1.05;;
60714;SDS011;46564;53.096;8.246;2022-09-21T12:17:06;6.75;;;1.13;;
60714;SDS011;46564;53.096;8.246;2022-09-21T12:22:15;4.22;;;0.85;;
60714;SDS011;46564;53.096;8.246;2022-09-21T12:37:36;3.25;;;0.80;;
60714;SDS011;46564;53.096;8.246;2022-09-21T12:42:45;11.70;;;2.17;;
60714;SDS011;46564;53.096;8.246;2022-09-21T12:52:58;9.20;;;1.10;;
60714;SDS011;46564;53.096;8.246;2022-09-21T12:58:10;4.78;;;1.02;;
60714;SDS011;46564;53.096;8.246;2022-09-21T13:08:46;5.07;;;1.83;;
60714;SDS011;46564;53.096;8.246;2022-09-21T13:13:51;3.95;;;0.85;;
60714;SDS011;46564;53.096;8.246;2022-09-21T13:19:01;4.40;;;0.70;;
60714;SDS011;46564;53.096;8.246;2022-09-21T13:24:05;5.72;;;0.93;;
60714;SDS011;46564;53.096;8.246;2022-09-21T13:29:27;4.78;;;0.90;;
60714;SDS011;46564;53.096;8.246;2022-09-21T13:34:44;9.03;;;2.03;;
60714;SDS011;46564;53.096;8.246;2022-09-21T13:44:56;3.70;;;0.82;;
60714;SDS011;46564;53.096;8.246;2022-09-21T13:50:00;5.38;;;1.00;;
60714;SDS011;46564;53.096;8.246;2022-09-21T13:55:26;6.70;;;0.88;;
60714;SDS011;46564;53.096;8.246;2022-09-21T14:00:41;5.00;;;0.80;;
60714;SDS011;46564;53.096;8.246;2022-09-21T14:06:05;3.60;;;0.70;;
60714;SDS011;46564;53.096;8.246;2022-09-21T14:11:22;5.68;;;1.27;;
60714;SDS011;46564;53.096;8.246;2022-09-21T14:32:27;3.97;;;0.90;;
60714;SDS011;46564;53.096;8.246;2022-09-21T14:37:35;4.40;;;0.65;;
60714;SDS011;46564;53.096;8.246;2022-09-21T14:42:44;7.43;;;0.70;;
60714;SDS011;46564;53.096;8.246;2022-09-21T14:47:53;4.35;;;0.77;;
60714;SDS011;46564;53.096;8.246;2022-09-21T15:03:44;6.45;;;0.88;;
60714;SDS011;46564;53.096;8.246;2022-09-21T15:14:55;3.00;;;0.45;;
60714;SDS011;46564;53.096;8.246;2022-09-21T15:20:19;5.97;;;0.70;;
60714;SDS011;46564;53.096;8.246;2022-09-21T15:25:30;3.45;;;0.88;;
60714;SDS011;46564;53.096;8.246;2022-09-21T15:30:39;2.80;;;1.00;;
60714;SDS011;46564;53.096;8.246;2022-09-21T15:35:45;3.35;;;0.60;;
60714;SDS011;46564;53.096;8.246;2022-09-21T15:40:48;4.65;;;0.90;;
60714;SDS011;46564;53.096;8.246;2022-09-21T15:46:04;3.17;;;0.60;;
60714;SDS011;46564;53.096;8.246;2022-09-21T15:51:24;6.00;;;0.70;;
60714;SDS011;46564;53.096;8.246;2022-09-21T15:56:32;5.03;;;0.80;;
60714;SDS011;46564;53.096;8.246;2022-09-21T16:01:41;5.47;;;1.00;;
60714;SDS011;46564;53.096;8.246;2022-09-21T16:07:03;4.25;;;0.88;;
60714;SDS011;46564;53.096;8.246;2022-09-21T16:17:56;3.95;;;0.80;;
60714;SDS011;46564;53.096;8.246;2022-09-21T16:23:04;6.53;;;1.10;;
60714;SDS011;46564;53.096;8.246;2022-09-21T16:38:37;4.35;;;0.88;;
60714;SDS011;46564;53.096;8.246;2022-09-21T16:43:39;5.78;;;1.10;;
60714;SDS011;46564;53.096;8.246;2022-09-21T16:48:43;3.38;;;0.88;;
60714;SDS011;46564;53.096;8.246;2022-09-21T16:53:45;5.35;;;1.17;;
60714;SDS011;46564;53.096;8.246;2022-09-21T16:58:46;5.97;;;1.83;;
60714;SDS011;46564;53.096;8.246;2022-09-21T17:03:48;8.73;;;2.22;;
60714;SDS011;46564;53.096;8.246;2022-09-21T17:08:49;7.60;;;1.65;;
60714;SDS011;46564;53.096;8.246;2022-09-21T17:13:51;8.30;;;2.53;;
60714;SDS011;46564;53.096;8.246;2022-09-21T17:18:53;10.82;;;2.88;;
60714;SDS011;46564;53.096;8.246;2022-09-21T17:23:54;10.07;;;2.67;;
60714;SDS011;46564;53.096;8.246;2022-09-21T17:28:56;8.38;;;2.40;;
60714;SDS011;46564;53.096;8.246;2022-09-21T17:34:00;13.65;;;3.35;;
60714;SDS011;46564;53.096;8.246;2022-09-21T17:39:11;11.70;;;4.20;;
60714;SDS011;46564;53.096;8.246;2022-09-21T17:49:18;13.15;;;5.68;;
60714;SDS011;46564;53.096;8.246;2022-09-21T17:54:20;12.18;;;4.80;;
60714;SDS011;46564;53.096;8.246;2022-09-21T17:59:29;15.50;;;5.85;;
60714;SDS011;46564;53.096;8.246;2022-09-21T18:04:37;13.07;;;6.05;;
60714;SDS011;46564;53.096;8.246;2022-09-21T18:09:39;11.88;;;5.32;;
60714;SDS011;46564;53.096;8.246;2022-09-21T18:14:58;11.70;;;4.70;;
60714;SDS011;46564;53.096;8.246;2022-09-21T18:25:32;9.45;;;3.20;;
60714;SDS011;46564;53.096;8.246;2022-09-21T18:30:37;13.10;;;4.18;;
60714;SDS011;46564;53.096;8.246;2022-09-21T18:35:53;25.58;;;9.32;;
60714;SDS011;46564;53.096;8.246;2022-09-21T18:46:14;24.15;;;11.98;;
60714;SDS011;46564;53.096;8.246;2022-09-21T18:51:22;26.17;;;12.05;;
60714;SDS011;46564;53.096;8.246;2022-09-21T18:56:30;23.30;;;10.40;;
60714;SDS011;46564;53.096;8.246;2022-09-21T19:01:35;24.77;;;10.80;;
60714;SDS011;46564;53.096;8.246;2022-09-21T19:07:13;19.60;;;8.55;;
60714;SDS011;46564;53.096;8.246;2022-09-21T19:18:18;13.98;;;5.25;;
60714;SDS011;46564;53.096;8.246;2022-09-21T19:23:35;11.13;;;5.03;;
60714;SDS011;46564;53.096;8.246;2022-09-21T19:28:52;8.20;;;4.00;;
60714;SDS011;46564;53.096;8.246;2022-09-21T19:34:04;12.38;;;3.95;;
60714;SDS011;46564;53.096;8.246;2022-09-21T19:39:14;10.60;;;4.03;;
60714;SDS011;46564;53.096;8.246;2022-09-21T19:55:16;12.30;;;5.82;;
60714;SDS011;46564;53.096;8.246;2022-09-21T20:00:39;15.27;;;6.22;;
60714;SDS011;46564;53.096;8.246;2022-09-21T20:06:46;11.57;;;5.28;;
60714;SDS011;46564;53.096;8.246;2022-09-21T20:11:44;11.48;;;5.70;;
60714;SDS011;46564;53.096;8.246;2022-09-21T20:16:52;13.85;;;4.15;;
60714;SDS011;46564;53.096;8.246;2022-09-21T20:21:58;14.30;;;5.32;;
60714;SDS011;46564;53.096;8.246;2022-09-21T20:27:12;13.27;;;4.30;;
60714;SDS011;46564;53.096;8.246;2022-09-21T20:32:36;11.60;;;5.30;;
60714;SDS011;46564;53.096;8.246;2022-09-21T20:37:41;15.15;;;7.68;;
60714;SDS011;46564;53.096;8.246;2022-09-21T20:42:42;33.55;;;15.68;;
60714;SDS011;46564;53.096;8.246;2022-09-21T20:47:47;52.13;;;24.33;;
60714;SDS011;46564;53.096;8.246;2022-09-21T20:52:49;42.80;;;20.30;;
60714;SDS011;46564;53.096;8.246;2022-09-21T20:57:52;36.70;;;18.55;;
60714;SDS011;46564;53.096;8.246;2022-09-21T21:02:55;27.00;;;12.18;;
60714;SDS011;46564;53.096;8.246;2022-09-21T21:08:01;25.05;;;11.43;;
60714;SDS011;46564;53.096;8.246;2022-09-21T21:13:04;19.58;;;10.10;;
60714;SDS011;46564;53.096;8.246;2022-09-21T21:18:08;20.50;;;9.65;;
60714;SDS011;46564;53.096;8.246;2022-09-21T21:23:11;16.48;;;8.88;;
60714;SDS011;46564;53.096;8.246;2022-09-21T21:28:13;14.07;;;7.93;;
60714;SDS011;46564;53.096;8.246;2022-09-21T21:33:15;17.15;;;8.32;;
60714;SDS011;46564;53.096;8.246;2022-09-21T21:38:16;16.98;;;7.55;;
60714;SDS011;46564;53.096;8.246;2022-09-21T21:43:18;18.00;;;7.65;;
60714;SDS011;46564;53.096;8.246;2022-09-21T21:48:19;16.83;;;8.35;;
60714;SDS011;46564;53.096;8.246;2022-09-21T21:53:21;19.90;;;10.38;;
60714;SDS011;46564;53.096;8.246;2022-09-21T21:58:23;20.58;;;10.30;;
60714;SDS011;46564;53.096;8.246;2022-09-21T22:03:27;25.35;;;11.30;;
60714;SDS011;46564;53.096;8.246;2022-09-21T22:08:30;21.25;;;11.50;;
60714;SDS011;46564;53.096;8.246;2022-09-21T22:13:34;24.95;;;11.02;;
60714;SDS011;46564;53.096;8.246;2022-09-21T22:18:37;21.63;;;10.38;;
60714;SDS011;46564;53.096;8.246;2022-09-21T22:23:40;19.90;;;10.23;;
60714;SDS011;46564;53.096;8.246;2022-09-21T22:28:43;18.48;;;8.70;;
60714;SDS011;46564;53.096;8.246;2022-09-21T22:33:46;17.80;;;7.93;;
60714;SDS011;46564;53.096;8.246;2022-09-21T22:38:48;16.10;;;7.47;;
60714;SDS011;46564;53.096;8.246;2022-09-21T22:43:51;15.00;;;7.78;;
60714;SDS011;46564;53.096;8.246;2022-09-21T22:48:54;21.67;;;8.50;;
60714;SDS011;46564;53.096;8.246;2022-09-21T22:53:56;19.33;;;8.77;;
60714;SDS011;46564;53.096;8.246;2022-09-21T22:58:59;21.10;;;9.15;;
60714;SDS011;46564;53.096;8.246;2022-09-21T23:04:06;23.27;;;9.40;;
60714;SDS011;46564;53.096;8.246;2022-09-21T23:09:12;23.85;;;8.07;;
60714;SDS011;46564;53.096;8.246;2022-09-21T23:14:16;20.48;;;8.40;;
60714;SDS011;46564;53.096;8.246;2022-09-21T23:19:18;20.67;;;8.75;;
60714;SDS011;46564;53.096;8.246;2022-09-21T23:24:19;19.48;;;7.75;;
60714;SDS011;46564;53.096;8.246;2022-09-21T23:29:21;20.15;;;7.70;;
60714;SDS011;46564;53.096;8.246;2022-09-21T23:34:22;21.02;;;6.88;;
60714;SDS011;46564;53.096;8.246;2022-09-21T23:39:24;18.27;;;7.07;;
60714;SDS011;46564;53.096;8.246;2022-09-21T23:44:26;18.83;;;7.50;;
60714;SDS011;46564;53.096;8.246;2022-09-21T23:49:28;14.57;;;6.68;;
60714;SDS011;46564;53.096;8.246;2022-09-21T23:54:29;16.60;;;6.70;;
60714;SDS011;46564;53.096;8.246;2022-09-21T23:59:31;15.30;;;7.22;;
